sensor_id;sensor_type;location;lat;lon;timestamp;pressure;altitude;pressure_sealevel;temperature;humidity
21401;BME280;18038;50.166;18.908;2023-04-03T00:02:25;98371.34;;;-0.55;78.63
21401;BME280;18038;50.166;18.908;2023-04-03T00:05:32;98370.00;;;-0.61;79.04
21401;BME280;18038;50.166;18.908;2023-04-03T00:08:39;98376.00;;;-0.48;79.29
21401;BME280;18038;50.166;18.908;2023-04-03T00:11:46;98373.13;;;-0.44;78.53
21401;BME280;18038;50.166;18.908;2023-04-03T00:14:55;98369.94;;;-0.48;78.60
21401;BME280;18038;50.166;18.908;2023-04-03T00:18:03;98379.25;;;-0.44;78.44
21401;BME280;18038;50.166;18.908;2023-04-03T00:21:12;98380.09;;;-0.43;78.14
21401;BME280;18038;50.166;18.908;2023-04-03T00:24:20;98373.88;;;-0.42;78.05
21401;BME280;18038;50.166;18.908;2023-04-03T00:27:26;98376.25;;;-0.39;77.57
21401;BME280;18038;50.166;18.908;2023-04-03T00:30:35;98378.63;;;-0.48;77.49
21401;BME280;18038;50.166;18.908;2023-04-03T00:33:42;98371.84;;;-0.39;77.39
21401;BME280;18038;50.166;18.908;2023-04-03T00:36:49;98371.09;;;-0.52;77.97
21401;BME280;18038;50.166;18.908;2023-04-03T00:39:55;98370.91;;;-0.38;77.90
21401;BME280;18038;50.166;18.908;2023-04-03T00:43:13;98377.22;;;-0.29;77.88
21401;BME280;18038;50.166;18.908;2023-04-03T00:46:23;98381.06;;;-0.33;77.40
21401;BME280;18038;50.166;18.908;2023-04-03T00:49:29;98373.78;;;-0.30;77.75
21401;BME280;18038;50.166;18.908;2023-04-03T00:52:38;98380.34;;;-0.35;78.31
21401;BME280;18038;50.166;18.908;2023-04-03T00:55:49;98380.19;;;-0.34;78.12
21401;BME280;18038;50.166;18.908;2023-04-03T00:59:04;98382.47;;;-0.29;77.88
21401;BME280;18038;50.166;18.908;2023-04-03T01:02:17;98380.81;;;-0.30;77.89
21401;BME280;18038;50.166;18.908;2023-04-03T01:05:25;98385.81;;;-0.38;78.77
21401;BME280;18038;50.166;18.908;2023-04-03T01:08:34;98382.81;;;-0.34;78.57
21401;BME280;18038;50.166;18.908;2023-04-03T01:11:41;98389.38;;;-0.39;78.09
21401;BME280;18038;50.166;18.908;2023-04-03T01:14:50;98388.88;;;-0.44;78.61
21401;BME280;18038;50.166;18.908;2023-04-03T01:18:00;98388.88;;;-0.44;78.85
21401;BME280;18038;50.166;18.908;2023-04-03T01:24:59;98394.53;;;-0.73;80.12
21401;BME280;18038;50.166;18.908;2023-04-03T01:28:09;98386.22;;;-0.67;79.69
21401;BME280;18038;50.166;18.908;2023-04-03T01:31:28;98395.25;;;-0.71;79.60
21401;BME280;18038;50.166;18.908;2023-04-03T01:34:41;98392.69;;;-0.60;79.55
21401;BME280;18038;50.166;18.908;2023-04-03T01:37:48;98388.38;;;-0.61;79.25
21401;BME280;18038;50.166;18.908;2023-04-03T01:40:55;98396.41;;;-0.51;78.81
21401;BME280;18038;50.166;18.908;2023-04-03T01:44:03;98399.34;;;-0.67;78.67
21401;BME280;18038;50.166;18.908;2023-04-03T01:47:10;98393.03;;;-0.64;78.45
21401;BME280;18038;50.166;18.908;2023-04-03T01:50:18;98399.09;;;-0.64;78.24
21401;BME280;18038;50.166;18.908;2023-04-03T01:53:25;98407.47;;;-0.59;77.73
21401;BME280;18038;50.166;18.908;2023-04-03T01:56:32;98401.97;;;-0.67;77.81
21401;BME280;18038;50.166;18.908;2023-04-03T01:59:39;98403.81;;;-0.80;78.25
21401;BME280;18038;50.166;18.908;2023-04-03T02:02:45;98403.84;;;-0.69;77.97
21401;BME280;18038;50.166;18.908;2023-04-03T02:05:54;98407.78;;;-0.75;77.23
21401;BME280;18038;50.166;18.908;2023-04-03T02:09:01;98406.78;;;-0.85;77.03
21401;BME280;18038;50.166;18.908;2023-04-03T02:12:08;98410.97;;;-0.82;77.53
21401;BME280;18038;50.166;18.908;2023-04-03T02:15:14;98417.50;;;-0.88;77.85
21401;BME280;18038;50.166;18.908;2023-04-03T02:18:21;98413.28;;;-1.02;77.04
21401;BME280;18038;50.166;18.908;2023-04-03T02:21:30;98408.13;;;-1.03;76.49
21401;BME280;18038;50.166;18.908;2023-04-03T02:24:36;98419.53;;;-0.92;76.91
21401;BME280;18038;50.166;18.908;2023-04-03T02:27:43;98422.81;;;-1.01;76.50
21401;BME280;18038;50.166;18.908;2023-04-03T02:30:50;98423.69;;;-1.13;76.40
21401;BME280;18038;50.166;18.908;2023-04-03T02:33:57;98422.19;;;-1.04;76.33
21401;BME280;18038;50.166;18.908;2023-04-03T02:37:06;98422.03;;;-1.14;75.84
21401;BME280;18038;50.166;18.908;2023-04-03T02:40:13;98421.34;;;-1.05;76.53
21401;BME280;18038;50.166;18.908;2023-04-03T02:43:20;98416.09;;;-1.05;76.13
21401;BME280;18038;50.166;18.908;2023-04-03T02:46:26;98410.84;;;-1.05;76.90
21401;BME280;18038;50.166;18.908;2023-04-03T02:49:33;98411.81;;;-1.06;76.94
21401;BME280;18038;50.166;18.908;2023-04-03T02:52:41;98422.63;;;-0.86;76.65
21401;BME280;18038;50.166;18.908;2023-04-03T02:55:48;98425.38;;;-0.88;76.74
21401;BME280;18038;50.166;18.908;2023-04-03T02:58:55;98425.88;;;-0.83;76.71
21401;BME280;18038;50.166;18.908;2023-04-03T03:02:02;98425.88;;;-0.83;76.38
21401;BME280;18038;50.166;18.908;2023-04-03T03:05:09;98426.94;;;-0.85;76.02
21401;BME280;18038;50.166;18.908;2023-04-03T03:08:18;98420.78;;;-0.97;76.07
21401;BME280;18038;50.166;18.908;2023-04-03T03:11:25;98428.31;;;-1.17;76.37
21401;BME280;18038;50.166;18.908;2023-04-03T03:14:32;98427.03;;;-1.11;75.85
21401;BME280;18038;50.166;18.908;2023-04-03T03:17:38;98430.63;;;-1.12;75.84
21401;BME280;18038;50.166;18.908;2023-04-03T03:20:45;98432.50;;;-1.14;75.60
21401;BME280;18038;50.166;18.908;2023-04-03T03:23:54;98435.03;;;-1.12;75.21
21401;BME280;18038;50.166;18.908;2023-04-03T03:27:02;98438.63;;;-1.26;74.52
21401;BME280;18038;50.166;18.908;2023-04-03T03:30:09;98443.47;;;-1.33;74.70
21401;BME280;18038;50.166;18.908;2023-04-03T03:33:16;98437.16;;;-1.18;74.39
21401;BME280;18038;50.166;18.908;2023-04-03T03:36:23;98451.88;;;-1.41;74.11
21401;BME280;18038;50.166;18.908;2023-04-03T03:39:32;98451.06;;;-1.41;73.33
21401;BME280;18038;50.166;18.908;2023-04-03T03:42:39;98450.22;;;-1.42;73.55
21401;BME280;18038;50.166;18.908;2023-04-03T03:45:50;98449.81;;;-1.48;73.69
21401;BME280;18038;50.166;18.908;2023-04-03T03:48:58;98453.09;;;-1.58;74.06
21401;BME280;18038;50.166;18.908;2023-04-03T03:52:06;98454.75;;;-1.56;73.66
21401;BME280;18038;50.166;18.908;2023-04-03T03:55:16;98458.84;;;-1.52;73.80
21401;BME280;18038;50.166;18.908;2023-04-03T03:58:27;98457.06;;;-1.52;73.68
21401;BME280;18038;50.166;18.908;2023-04-03T04:01:34;98475.19;;;-1.62;73.17
21401;BME280;18038;50.166;18.908;2023-04-03T04:04:41;98455.38;;;-1.66;73.36
21401;BME280;18038;50.166;18.908;2023-04-03T04:07:48;98462.94;;;-1.74;73.54
21401;BME280;18038;50.166;18.908;2023-04-03T04:10:57;98460.75;;;-1.80;74.12
21401;BME280;18038;50.166;18.908;2023-04-03T04:14:05;98461.19;;;-1.73;73.90
21401;BME280;18038;50.166;18.908;2023-04-03T04:17:14;98471.84;;;-1.76;73.51
21401;BME280;18038;50.166;18.908;2023-04-03T04:20:24;98479.69;;;-1.76;73.68
21401;BME280;18038;50.166;18.908;2023-04-03T04:23:32;98483.19;;;-1.89;73.43
21401;BME280;18038;50.166;18.908;2023-04-03T04:26:41;98479.38;;;-1.97;73.69
21401;BME280;18038;50.166;18.908;2023-04-03T04:29:50;98474.50;;;-2.02;73.90
21401;BME280;18038;50.166;18.908;2023-04-03T04:32:58;98471.44;;;-2.09;73.66
21401;BME280;18038;50.166;18.908;2023-04-03T04:36:06;98480.66;;;-2.16;74.38
21401;BME280;18038;50.166;18.908;2023-04-03T04:39:17;98485.47;;;-2.10;73.96
21401;BME280;18038;50.166;18.908;2023-04-03T04:42:27;98487.97;;;-2.08;73.91
21401;BME280;18038;50.166;18.908;2023-04-03T04:45:33;98492.69;;;-2.26;73.80
21401;BME280;18038;50.166;18.908;2023-04-03T04:48:41;98497.41;;;-2.18;73.69
21401;BME280;18038;50.166;18.908;2023-04-03T04:51:48;98500.84;;;-2.18;73.71
21401;BME280;18038;50.166;18.908;2023-04-03T04:55:02;98500.41;;;-2.25;73.71
21401;BME280;18038;50.166;18.908;2023-04-03T04:58:11;98506.19;;;-2.19;73.72
21401;BME280;18038;50.166;18.908;2023-04-03T05:01:24;98501.47;;;-2.27;73.78
21401;BME280;18038;50.166;18.908;2023-04-03T05:04:40;98510.69;;;-2.21;73.75
21401;BME280;18038;50.166;18.908;2023-04-03T05:07:54;98508.78;;;-2.32;73.23
21401;BME280;18038;50.166;18.908;2023-04-03T05:11:00;98518.63;;;-2.36;73.18
21401;BME280;18038;50.166;18.908;2023-04-03T05:14:10;98514.75;;;-2.30;73.17
21401;BME280;18038;50.166;18.908;2023-04-03T05:17:16;98522.63;;;-2.57;73.17
21401;BME280;18038;50.166;18.908;2023-04-03T05:20:28;98519.81;;;-2.54;73.46
21401;BME280;18038;50.166;18.908;2023-04-03T05:23:34;98523.69;;;-2.60;73.29
21401;BME280;18038;50.166;18.908;2023-04-03T05:26:42;98532.06;;;-2.55;73.14
21401;BME280;18038;50.166;18.908;2023-04-03T05:29:52;98520.34;;;-2.49;73.16
21401;BME280;18038;50.166;18.908;2023-04-03T05:33:01;98528.41;;;-2.52;72.89
21401;BME280;18038;50.166;18.908;2023-04-03T05:36:13;98533.16;;;-2.44;73.11
21401;BME280;18038;50.166;18.908;2023-04-03T05:39:25;98535.47;;;-2.67;73.47
21401;BME280;18038;50.166;18.908;2023-04-03T05:42:32;98526.38;;;-2.61;73.38
21401;BME280;18038;50.166;18.908;2023-04-03T05:45:42;98533.09;;;-2.57;72.98
21401;BME280;18038;50.166;18.908;2023-04-03T05:48:50;98531.44;;;-2.46;73.13
21401;BME280;18038;50.166;18.908;2023-04-03T05:52:00;98535.81;;;-2.59;72.59
21401;BME280;18038;50.166;18.908;2023-04-03T05:55:08;98542.41;;;-2.53;72.84
21401;BME280;18038;50.166;18.908;2023-04-03T05:58:15;98548.31;;;-2.50;72.81
21401;BME280;18038;50.166;18.908;2023-04-03T06:01:26;98557.94;;;-2.50;72.37
21401;BME280;18038;50.166;18.908;2023-04-03T06:04:33;98554.28;;;-2.48;72.75
21401;BME280;18038;50.166;18.908;2023-04-03T06:07:39;98561.47;;;-2.51;72.60
21401;BME280;18038;50.166;18.908;2023-04-03T06:10:48;98567.66;;;-2.52;72.68
21401;BME280;18038;50.166;18.908;2023-04-03T06:13:54;98572.19;;;-2.41;71.68
21401;BME280;18038;50.166;18.908;2023-04-03T06:17:03;98573.56;;;-2.36;72.26
21401;BME280;18038;50.166;18.908;2023-04-03T06:20:11;98575.13;;;-2.33;71.05
21401;BME280;18038;50.166;18.908;2023-04-03T06:23:21;98580.81;;;-2.54;71.23
21401;BME280;18038;50.166;18.908;2023-04-03T06:26:27;98579.56;;;-2.48;71.51
21401;BME280;18038;50.166;18.908;2023-04-03T06:29:36;98579.81;;;-2.38;71.33
21401;BME280;18038;50.166;18.908;2023-04-03T06:32:45;98584.22;;;-2.39;70.41
21401;BME280;18038;50.166;18.908;2023-04-03T06:35:56;98581.34;;;-2.21;70.64
21401;BME280;18038;50.166;18.908;2023-04-03T06:39:06;98576.16;;;-2.36;70.46
21401;BME280;18038;50.166;18.908;2023-04-03T06:42:13;98581.03;;;-2.17;69.76
21401;BME280;18038;50.166;18.908;2023-04-03T06:45:29;98592.66;;;-2.08;69.17
21401;BME280;18038;50.166;18.908;2023-04-03T06:48:39;98591.25;;;-1.99;69.20
21401;BME280;18038;50.166;18.908;2023-04-03T06:51:45;98595.78;;;-1.89;69.31
21401;BME280;18038;50.166;18.908;2023-04-03T06:54:52;98600.28;;;-1.78;69.12
21401;BME280;18038;50.166;18.908;2023-04-03T06:58:02;98599.16;;;-2.14;67.96
21401;BME280;18038;50.166;18.908;2023-04-03T07:01:14;98602.50;;;-2.12;68.57
21401;BME280;18038;50.166;18.908;2023-04-03T07:04:24;98606.28;;;-2.03;68.32
21401;BME280;18038;50.166;18.908;2023-04-03T07:07:31;98613.47;;;-1.80;67.91
21401;BME280;18038;50.166;18.908;2023-04-03T07:10:38;98616.84;;;-1.77;67.24
21401;BME280;18038;50.166;18.908;2023-04-03T07:13:46;98615.56;;;-1.72;66.28
21401;BME280;18038;50.166;18.908;2023-04-03T07:16:52;98609.47;;;-1.85;66.53
21401;BME280;18038;50.166;18.908;2023-04-03T07:20:08;98624.81;;;-1.66;66.33
21401;BME280;18038;50.166;18.908;2023-04-03T07:23:14;98629.41;;;-1.70;66.00
21401;BME280;18038;50.166;18.908;2023-04-03T07:26:22;98632.06;;;-1.57;66.41
21401;BME280;18038;50.166;18.908;2023-04-03T07:29:32;98633.97;;;-1.33;65.89
21401;BME280;18038;50.166;18.908;2023-04-03T07:32:42;98630.69;;;-1.24;64.32
21401;BME280;18038;50.166;18.908;2023-04-03T07:35:51;98640.44;;;-1.26;63.79
21401;BME280;18038;50.166;18.908;2023-04-03T07:38:58;98636.75;;;-0.85;62.85
21401;BME280;18038;50.166;18.908;2023-04-03T07:42:15;98645.22;;;-0.32;61.42
21401;BME280;18038;50.166;18.908;2023-04-03T07:45:22;98645.47;;;0.00;60.80
21401;BME280;18038;50.166;18.908;2023-04-03T07:48:28;98644.38;;;0.27;59.02
21401;BME280;18038;50.166;18.908;2023-04-03T07:51:38;98653.97;;;0.97;56.51
21401;BME280;18038;50.166;18.908;2023-04-03T07:54:44;98643.69;;;1.27;55.21
21401;BME280;18038;50.166;18.908;2023-04-03T07:57:51;98638.16;;;1.53;53.80
21401;BME280;18038;50.166;18.908;2023-04-03T08:01:01;98646.28;;;1.61;52.68
21401;BME280;18038;50.166;18.908;2023-04-03T08:04:09;98655.16;;;1.38;52.55
21401;BME280;18038;50.166;18.908;2023-04-03T08:07:19;98648.00;;;1.17;51.52
21401;BME280;18038;50.166;18.908;2023-04-03T08:10:26;98642.50;;;1.09;51.37
21401;BME280;18038;50.166;18.908;2023-04-03T08:13:33;98644.91;;;2.22;50.63
21401;BME280;18038;50.166;18.908;2023-04-03T08:16:40;98650.31;;;1.77;48.48
21401;BME280;18038;50.166;18.908;2023-04-03T08:19:47;98644.28;;;1.97;48.16
21401;BME280;18038;50.166;18.908;2023-04-03T08:22:56;98635.28;;;1.56;47.56
21401;BME280;18038;50.166;18.908;2023-04-03T08:26:07;98651.00;;;2.85;45.56
21401;BME280;18038;50.166;18.908;2023-04-03T08:29:15;98649.31;;;3.05;43.46
21401;BME280;18038;50.166;18.908;2023-04-03T08:32:25;98637.81;;;3.06;44.20
21401;BME280;18038;50.166;18.908;2023-04-03T08:35:33;98656.91;;;2.98;43.99
21401;BME280;18038;50.166;18.908;2023-04-03T08:38:47;98653.06;;;2.07;43.95
21401;BME280;18038;50.166;18.908;2023-04-03T08:41:58;98661.16;;;1.28;42.28
21401;BME280;18038;50.166;18.908;2023-04-03T08:45:15;98659.25;;;2.29;41.29
21401;BME280;18038;50.166;18.908;2023-04-03T08:48:30;98655.56;;;2.41;40.68
21401;BME280;18038;50.166;18.908;2023-04-03T08:51:43;98661.16;;;2.27;39.00
21401;BME280;18038;50.166;18.908;2023-04-03T08:55:21;98652.84;;;2.94;38.06
21401;BME280;18038;50.166;18.908;2023-04-03T08:58:42;98655.72;;;2.60;36.93
21401;BME280;18038;50.166;18.908;2023-04-03T09:01:56;98668.66;;;2.10;37.93
21401;BME280;18038;50.166;18.908;2023-04-03T09:05:13;98660.03;;;2.08;38.46
21401;BME280;18038;50.166;18.908;2023-04-03T09:08:24;98644.97;;;2.52;37.60
21401;BME280;18038;50.166;18.908;2023-04-03T09:11:48;98654.06;;;3.42;34.71
21401;BME280;18038;50.166;18.908;2023-04-03T09:15:11;98646.84;;;3.03;35.02
21401;BME280;18038;50.166;18.908;2023-04-03T09:18:45;98641.00;;;2.58;37.46
21401;BME280;18038;50.166;18.908;2023-04-03T09:22:07;98658.13;;;2.10;36.15
21401;BME280;18038;50.166;18.908;2023-04-03T09:25:23;98653.09;;;2.60;35.29
21401;BME280;18038;50.166;18.908;2023-04-03T09:28:39;98653.72;;;3.56;33.04
21401;BME280;18038;50.166;18.908;2023-04-03T09:31:56;98650.16;;;4.64;32.60
21401;BME280;18038;50.166;18.908;2023-04-03T09:35:19;98651.69;;;4.47;31.79
21401;BME280;18038;50.166;18.908;2023-04-03T09:38:45;98659.72;;;5.32;31.72
21401;BME280;18038;50.166;18.908;2023-04-03T09:41:59;98650.41;;;5.83;32.52
21401;BME280;18038;50.166;18.908;2023-04-03T09:45:23;98649.59;;;5.55;32.16
21401;BME280;18038;50.166;18.908;2023-04-03T09:48:31;98651.97;;;5.48;33.30
21401;BME280;18038;50.166;18.908;2023-04-03T09:51:40;98666.59;;;4.39;31.54
21401;BME280;18038;50.166;18.908;2023-04-03T09:54:48;98668.63;;;3.77;32.94
21401;BME280;18038;50.166;18.908;2023-04-03T09:57:57;98669.56;;;3.25;32.60
21401;BME280;18038;50.166;18.908;2023-04-03T10:01:25;98672.69;;;2.68;33.36
21401;BME280;18038;50.166;18.908;2023-04-03T10:04:39;98669.22;;;2.46;33.18
21401;BME280;18038;50.166;18.908;2023-04-03T10:07:50;98685.19;;;3.08;33.15
21401;BME280;18038;50.166;18.908;2023-04-03T10:11:12;98669.81;;;1.85;35.68
21401;BME280;18038;50.166;18.908;2023-04-03T10:14:20;98683.13;;;2.16;36.58
21401;BME280;18038;50.166;18.908;2023-04-03T10:17:43;98679.16;;;2.22;38.01
21401;BME280;18038;50.166;18.908;2023-04-03T10:21:10;98687.34;;;2.07;38.54
21401;BME280;18038;50.166;18.908;2023-04-03T10:24:37;98683.78;;;3.75;39.01
21401;BME280;18038;50.166;18.908;2023-04-03T10:27:58;98687.47;;;4.42;36.30
21401;BME280;18038;50.166;18.908;2023-04-03T10:31:25;98692.00;;;3.72;37.27
21401;BME280;18038;50.166;18.908;2023-04-03T10:34:59;98668.59;;;2.75;37.33
21401;BME280;18038;50.166;18.908;2023-04-03T10:38:23;98698.56;;;2.74;36.16
21401;BME280;18038;50.166;18.908;2023-04-03T10:41:52;98703.28;;;2.38;36.30
21401;BME280;18038;50.166;18.908;2023-04-03T10:45:26;98699.06;;;1.71;34.55
21401;BME280;18038;50.166;18.908;2023-04-03T10:48:49;98684.03;;;1.94;36.63
21401;BME280;18038;50.166;18.908;2023-04-03T10:52:22;98690.81;;;2.40;36.29
21401;BME280;18038;50.166;18.908;2023-04-03T10:55:38;98686.59;;;2.16;37.33
21401;BME280;18038;50.166;18.908;2023-04-03T10:58:58;98679.47;;;1.96;36.82
21401;BME280;18038;50.166;18.908;2023-04-03T11:02:23;98679.19;;;2.43;37.49
21401;BME280;18038;50.166;18.908;2023-04-03T11:05:43;98674.50;;;2.46;37.35
21401;BME280;18038;50.166;18.908;2023-04-03T11:08:59;98674.59;;;2.24;37.30
21401;BME280;18038;50.166;18.908;2023-04-03T11:12:14;98673.09;;;2.42;38.02
21401;BME280;18038;50.166;18.908;2023-04-03T11:15:30;98677.03;;;2.69;38.28
21401;BME280;18038;50.166;18.908;2023-04-03T11:18:44;98671.38;;;3.65;37.98
21401;BME280;18038;50.166;18.908;2023-04-03T11:22:05;98654.50;;;4.36;35.73
21401;BME280;18038;50.166;18.908;2023-04-03T11:25:23;98653.94;;;5.09;34.65
21401;BME280;18038;50.166;18.908;2023-04-03T11:28:32;98652.16;;;5.09;34.07
21401;BME280;18038;50.166;18.908;2023-04-03T11:32:02;98664.47;;;5.28;33.31
21401;BME280;18038;50.166;18.908;2023-04-03T11:35:27;98657.13;;;4.26;32.69
21401;BME280;18038;50.166;18.908;2023-04-03T11:38:44;98649.00;;;4.76;31.22
21401;BME280;18038;50.166;18.908;2023-04-03T11:42:15;98649.81;;;3.51;33.01
21401;BME280;18038;50.166;18.908;2023-04-03T11:45:35;98643.50;;;3.32;34.99
21401;BME280;18038;50.166;18.908;2023-04-03T11:48:51;98658.31;;;3.64;34.86
21401;BME280;18038;50.166;18.908;2023-04-03T11:51:59;98650.44;;;4.03;33.94
21401;BME280;18038;50.166;18.908;2023-04-03T12:02:36;98652.50;;;3.89;30.86
21401;BME280;18038;50.166;18.908;2023-04-03T12:05:57;98648.34;;;3.97;33.09
21401;BME280;18038;50.166;18.908;2023-04-03T12:13:34;98649.88;;;4.48;28.10
21401;BME280;18038;50.166;18.908;2023-04-03T12:16:45;98632.88;;;5.44;29.27
21401;BME280;18038;50.166;18.908;2023-04-03T12:19:54;98624.84;;;5.36;28.26
21401;BME280;18038;50.166;18.908;2023-04-03T12:23:07;98621.47;;;5.44;30.15
21401;BME280;18038;50.166;18.908;2023-04-03T12:26:38;98620.91;;;5.50;30.64
21401;BME280;18038;50.166;18.908;2023-04-03T12:29:58;98621.97;;;5.57;29.03
21401;BME280;18038;50.166;18.908;2023-04-03T12:33:20;98619.47;;;5.46;30.72
21401;BME280;18038;50.166;18.908;2023-04-03T12:36:50;98616.66;;;4.92;30.27
21401;BME280;18038;50.166;18.908;2023-04-03T12:40:21;98604.09;;;5.59;29.42
21401;BME280;18038;50.166;18.908;2023-04-03T12:43:50;98614.69;;;4.94;30.00
21401;BME280;18038;50.166;18.908;2023-04-03T12:47:25;98617.22;;;4.96;31.25
21401;BME280;18038;50.166;18.908;2023-04-03T12:50:36;98606.06;;;4.92;31.97
21401;BME280;18038;50.166;18.908;2023-04-03T12:53:46;98608.88;;;5.46;30.60
21401;BME280;18038;50.166;18.908;2023-04-03T12:57:10;98603.09;;;5.05;31.13
21401;BME280;18038;50.166;18.908;2023-04-03T13:00:35;98613.69;;;4.19;32.74
21401;BME280;18038;50.166;18.908;2023-04-03T13:03:45;98620.50;;;3.73;33.40
21401;BME280;18038;50.166;18.908;2023-04-03T13:06:57;98614.66;;;2.68;35.56
21401;BME280;18038;50.166;18.908;2023-04-03T13:10:14;98609.75;;;3.05;36.77
21401;BME280;18038;50.166;18.908;2023-04-03T13:13:22;98610.16;;;2.79;35.76
21401;BME280;18038;50.166;18.908;2023-04-03T13:16:35;98616.91;;;2.72;35.78
21401;BME280;18038;50.166;18.908;2023-04-03T13:19:45;98610.09;;;2.28;37.23
21401;BME280;18038;50.166;18.908;2023-04-03T13:22:57;98609.47;;;2.35;38.23
21401;BME280;18038;50.166;18.908;2023-04-03T13:26:07;98617.28;;;1.72;38.63
21401;BME280;18038;50.166;18.908;2023-04-03T13:29:24;98619.72;;;1.53;40.19
21401;BME280;18038;50.166;18.908;2023-04-03T13:32:36;98626.00;;;1.84;40.21
21401;BME280;18038;50.166;18.908;2023-04-03T13:35:44;98619.09;;;2.25;39.60
21401;BME280;18038;50.166;18.908;2023-04-03T13:38:59;98619.03;;;2.57;39.11
21401;BME280;18038;50.166;18.908;2023-04-03T13:42:23;98613.09;;;2.86;37.01
21401;BME280;18038;50.166;18.908;2023-04-03T13:45:33;98620.31;;;2.84;34.72
21401;BME280;18038;50.166;18.908;2023-04-03T13:48:45;98617.16;;;3.21;35.06
21401;BME280;18038;50.166;18.908;2023-04-03T13:52:22;98614.09;;;3.66;35.27
21401;BME280;18038;50.166;18.908;2023-04-03T13:55:53;98618.91;;;3.41;32.96
21401;BME280;18038;50.166;18.908;2023-04-03T13:59:22;98614.16;;;3.35;33.47
21401;BME280;18038;50.166;18.908;2023-04-03T14:02:38;98612.28;;;2.86;34.03
21401;BME280;18038;50.166;18.908;2023-04-03T14:05:47;98607.69;;;3.09;34.51
21401;BME280;18038;50.166;18.908;2023-04-03T14:08:54;98623.97;;;2.93;33.70
21401;BME280;18038;50.166;18.908;2023-04-03T14:12:07;98618.03;;;3.00;32.73
21401;BME280;18038;50.166;18.908;2023-04-03T14:15:44;98609.81;;;2.63;33.07
21401;BME280;18038;50.166;18.908;2023-04-03T14:19:09;98608.53;;;3.09;34.43
21401;BME280;18038;50.166;18.908;2023-04-03T14:22:30;98610.28;;;2.78;35.81
21401;BME280;18038;50.166;18.908;2023-04-03T14:25:39;98619.72;;;2.29;34.65
21401;BME280;18038;50.166;18.908;2023-04-03T14:28:50;98622.59;;;2.47;34.84
21401;BME280;18038;50.166;18.908;2023-04-03T14:31:58;98619.44;;;2.32;33.82
21401;BME280;18038;50.166;18.908;2023-04-03T14:35:17;98630.91;;;2.42;34.96
21401;BME280;18038;50.166;18.908;2023-04-03T14:38:30;98626.31;;;2.44;35.30
21401;BME280;18038;50.166;18.908;2023-04-03T14:41:38;98623.03;;;2.31;35.19
21401;BME280;18038;50.166;18.908;2023-04-03T14:44:44;98622.44;;;2.06;35.47
21401;BME280;18038;50.166;18.908;2023-04-03T14:47:54;98625.63;;;2.10;35.81
21401;BME280;18038;50.166;18.908;2023-04-03T14:51:10;98622.91;;;2.11;35.85
21401;BME280;18038;50.166;18.908;2023-04-03T14:54:27;98628.75;;;2.36;36.79
21401;BME280;18038;50.166;18.908;2023-04-03T14:57:34;98630.63;;;2.24;36.13
21401;BME280;18038;50.166;18.908;2023-04-03T15:00:49;98635.78;;;1.93;37.66
21401;BME280;18038;50.166;18.908;2023-04-03T15:04:10;98638.00;;;1.66;37.76
21401;BME280;18038;50.166;18.908;2023-04-03T15:07:32;98628.13;;;1.24;37.50
21401;BME280;18038;50.166;18.908;2023-04-03T15:10:44;98636.88;;;1.25;38.49
21401;BME280;18038;50.166;18.908;2023-04-03T15:13:51;98646.19;;;1.29;38.87
21401;BME280;18038;50.166;18.908;2023-04-03T15:16:57;98637.94;;;1.45;38.32
21401;BME280;18038;50.166;18.908;2023-04-03T15:20:14;98629.94;;;1.13;39.05
21401;BME280;18038;50.166;18.908;2023-04-03T15:23:22;98638.78;;;1.12;37.66
21401;BME280;18038;50.166;18.908;2023-04-03T15:26:34;98650.63;;;1.06;37.64
21401;BME280;18038;50.166;18.908;2023-04-03T15:29:43;98642.97;;;1.03;37.82
21401;BME280;18038;50.166;18.908;2023-04-03T15:32:52;98639.88;;;0.98;39.03
21401;BME280;18038;50.166;18.908;2023-04-03T15:35:59;98641.16;;;1.15;39.39
21401;BME280;18038;50.166;18.908;2023-04-03T15:39:19;98643.56;;;1.40;38.64
21401;BME280;18038;50.166;18.908;2023-04-03T15:42:28;98641.78;;;1.18;38.15
21401;BME280;18038;50.166;18.908;2023-04-03T15:45:37;98657.78;;;0.81;39.91
21401;BME280;18038;50.166;18.908;2023-04-03T15:48:43;98652.63;;;0.80;40.64
21401;BME280;18038;50.166;18.908;2023-04-03T15:51:51;98657.31;;;0.88;41.15
21401;BME280;18038;50.166;18.908;2023-04-03T15:54:57;98664.47;;;0.85;41.04
21401;BME280;18038;50.166;18.908;2023-04-03T15:58:07;98665.19;;;0.99;40.43
21401;BME280;18038;50.166;18.908;2023-04-03T16:01:14;98657.78;;;0.93;40.61
21401;BME280;18038;50.166;18.908;2023-04-03T16:04:21;98656.13;;;0.92;39.37
21401;BME280;18038;50.166;18.908;2023-04-03T16:07:28;98658.63;;;0.82;39.92
21401;BME280;18038;50.166;18.908;2023-04-03T16:10:36;98664.13;;;0.79;39.87
21401;BME280;18038;50.166;18.908;2023-04-03T16:13:45;98659.09;;;0.76;41.08
21401;BME280;18038;50.166;18.908;2023-04-03T16:16:52;98651.69;;;0.81;40.37
21401;BME280;18038;50.166;18.908;2023-04-03T16:19:59;98665.19;;;0.88;40.21
21401;BME280;18038;50.166;18.908;2023-04-03T16:23:07;98660.50;;;0.57;40.73
21401;BME280;18038;50.166;18.908;2023-04-03T16:26:13;98668.63;;;0.54;40.80
21401;BME280;18038;50.166;18.908;2023-04-03T16:29:23;98672.34;;;0.74;41.72
21401;BME280;18038;50.166;18.908;2023-04-03T16:32:31;98667.66;;;0.55;40.22
21401;BME280;18038;50.166;18.908;2023-04-03T16:35:39;98667.41;;;0.47;41.05
21401;BME280;18038;50.166;18.908;2023-04-03T16:38:46;98669.47;;;0.66;41.25
21401;BME280;18038;50.166;18.908;2023-04-03T16:41:53;98670.44;;;0.76;40.90
21401;BME280;18038;50.166;18.908;2023-04-03T16:45:02;98672.81;;;0.68;41.17
21401;BME280;18038;50.166;18.908;2023-04-03T16:48:09;98669.69;;;0.52;41.24
21401;BME280;18038;50.166;18.908;2023-04-03T16:51:16;98671.50;;;0.62;41.61
21401;BME280;18038;50.166;18.908;2023-04-03T16:54:23;98673.16;;;0.63;41.79
21401;BME280;18038;50.166;18.908;2023-04-03T16:57:33;98672.56;;;0.49;41.77
21401;BME280;18038;50.166;18.908;2023-04-03T17:00:42;98670.25;;;0.44;41.51
21401;BME280;18038;50.166;18.908;2023-04-03T17:03:49;98675.09;;;0.26;42.06
21401;BME280;18038;50.166;18.908;2023-04-03T17:06:57;98669.81;;;0.26;42.14